sensor_id;sensor_type;location;lat;lon;timestamp;P1;durP1;ratioP1;P2;durP2;ratioP2
57311;SDS011;43154;50.966;18.316;2023-04-30T00:06:23;39.70;;;21.80;;
57311;SDS011;43154;50.966;18.316;2023-04-30T00:09:46;39.50;;;22.50;;
57311;SDS011;43154;50.966;18.316;2023-04-30T00:18:59;41.20;;;23.30;;
57311;SDS011;43154;50.966;18.316;2023-04-30T00:28:45;38.20;;;21.80;;
57311;SDS011;43154;50.966;18.316;2023-04-30T00:31:55;40.20;;;21.80;;
57311;SDS011;43154;50.966;18.316;2023-04-30T00:35:26;37.40;;;20.50;;
57311;SDS011;43154;50.966;18.316;2023-04-30T00:38:25;39.20;;;21.10;;
57311;SDS011;43154;50.966;18.316;2023-04-30T00:41:54;40.40;;;21.10;;
57311;SDS011;43154;50.966;18.316;2023-04-30T00:45:04;35.90;;;19.90;;
57311;SDS011;43154;50.966;18.316;2023-04-30T00:54:02;31.80;;;17.40;;
57311;SDS011;43154;50.966;18.316;2023-04-30T00:57:05;35.20;;;18.90;;
57311;SDS011;43154;50.966;18.316;2023-04-30T01:00:42;32.40;;;17.50;;
57311;SDS011;43154;50.966;18.316;2023-04-30T01:03:34;31.50;;;17.70;;
57311;SDS011;43154;50.966;18.316;2023-04-30T01:10:11;36.70;;;18.10;;
57311;SDS011;43154;50.966;18.316;2023-04-30T01:32:26;33.40;;;16.10;;
57311;SDS011;43154;50.966;18.316;2023-04-30T01:42:13;33.70;;;17.00;;
57311;SDS011;43154;50.966;18.316;2023-04-30T01:48:45;28.60;;;15.10;;
57311;SDS011;43154;50.966;18.316;2023-04-30T02:05:10;29.40;;;15.10;;
57311;SDS011;43154;50.966;18.316;2023-04-30T02:08:08;29.90;;;15.30;;
57311;SDS011;43154;50.966;18.316;2023-04-30T02:10:39;31.90;;;15.70;;
57311;SDS011;43154;50.966;18.316;2023-04-30T02:13:43;33.50;;;16.10;;
57311;SDS011;43154;50.966;18.316;2023-04-30T02:20:26;27.90;;;14.70;;
57311;SDS011;43154;50.966;18.316;2023-04-30T02:23:30;28.00;;;15.10;;
57311;SDS011;43154;50.966;18.316;2023-04-30T02:29:33;27.00;;;13.60;;
57311;SDS011;43154;50.966;18.316;2023-04-30T02:32:19;29.40;;;15.00;;
57311;SDS011;43154;50.966;18.316;2023-04-30T02:35:10;27.00;;;14.80;;
57311;SDS011;43154;50.966;18.316;2023-04-30T02:38:27;28.90;;;14.60;;
57311;SDS011;43154;50.966;18.316;2023-04-30T02:41:20;29.50;;;15.50;;
57311;SDS011;43154;50.966;18.316;2023-04-30T02:44:29;30.70;;;15.20;;
57311;SDS011;43154;50.966;18.316;2023-04-30T02:47:42;28.70;;;15.00;;
57311;SDS011;43154;50.966;18.316;2023-04-30T02:50:30;28.70;;;14.50;;
57311;SDS011;43154;50.966;18.316;2023-04-30T02:53:22;30.80;;;14.90;;
57311;SDS011;43154;50.966;18.316;2023-04-30T02:56:25;29.10;;;14.90;;
57311;SDS011;43154;50.966;18.316;2023-04-30T02:59:20;29.90;;;14.60;;
57311;SDS011;43154;50.966;18.316;2023-04-30T03:02:12;26.40;;;14.20;;
57311;SDS011;43154;50.966;18.316;2023-04-30T03:05:01;27.20;;;14.10;;
57311;SDS011;43154;50.966;18.316;2023-04-30T03:07:38;29.70;;;14.80;;
57311;SDS011;43154;50.966;18.316;2023-04-30T03:10:23;30.90;;;14.50;;
57311;SDS011;43154;50.966;18.316;2023-04-30T03:16:41;29.30;;;15.50;;
57311;SDS011;43154;50.966;18.316;2023-04-30T03:19:06;30.40;;;13.90;;
57311;SDS011;43154;50.966;18.316;2023-04-30T03:21:32;27.20;;;13.70;;
57311;SDS011;43154;50.966;18.316;2023-04-30T03:23:57;31.30;;;14.90;;
57311;SDS011;43154;50.966;18.316;2023-04-30T03:26:23;30.10;;;15.90;;
57311;SDS011;43154;50.966;18.316;2023-04-30T03:28:48;31.10;;;15.10;;
57311;SDS011;43154;50.966;18.316;2023-04-30T03:31:14;30.80;;;15.80;;
57311;SDS011;43154;50.966;18.316;2023-04-30T03:33:39;31.30;;;15.40;;
57311;SDS011;43154;50.966;18.316;2023-04-30T03:36:05;28.90;;;14.30;;
57311;SDS011;43154;50.966;18.316;2023-04-30T03:38:30;30.10;;;14.90;;
57311;SDS011;43154;50.966;18.316;2023-04-30T03:40:56;29.70;;;15.50;;
57311;SDS011;43154;50.966;18.316;2023-04-30T03:43:21;29.60;;;15.50;;
57311;SDS011;43154;50.966;18.316;2023-04-30T03:45:47;26.30;;;13.90;;
57311;SDS011;43154;50.966;18.316;2023-04-30T03:48:13;25.80;;;14.90;;
57311;SDS011;43154;50.966;18.316;2023-04-30T03:50:39;29.20;;;14.50;;
57311;SDS011;43154;50.966;18.316;2023-04-30T03:53:05;29.50;;;14.40;;
57311;SDS011;43154;50.966;18.316;2023-04-30T03:55:31;32.20;;;14.80;;
57311;SDS011;43154;50.966;18.316;2023-04-30T03:57:58;29.50;;;14.30;;
57311;SDS011;43154;50.966;18.316;2023-04-30T04:00:23;27.30;;;14.10;;
57311;SDS011;43154;50.966;18.316;2023-04-30T04:02:49;28.30;;;15.00;;
57311;SDS011;43154;50.966;18.316;2023-04-30T04:05:14;28.20;;;14.10;;
57311;SDS011;43154;50.966;18.316;2023-04-30T04:07:40;28.70;;;14.60;;
57311;SDS011;43154;50.966;18.316;2023-04-30T04:10:05;28.30;;;14.00;;
57311;SDS011;43154;50.966;18.316;2023-04-30T04:12:32;27.50;;;13.80;;
57311;SDS011;43154;50.966;18.316;2023-04-30T04:14:57;27.40;;;13.40;;
57311;SDS011;43154;50.966;18.316;2023-04-30T04:17:23;28.10;;;13.90;;
57311;SDS011;43154;50.966;18.316;2023-04-30T04:19:49;30.70;;;14.70;;
57311;SDS011;43154;50.966;18.316;2023-04-30T04:22:14;30.20;;;14.80;;
57311;SDS011;43154;50.966;18.316;2023-04-30T04:24:40;28.10;;;14.90;;
57311;SDS011;43154;50.966;18.316;2023-04-30T04:27:05;30.70;;;15.60;;
57311;SDS011;43154;50.966;18.316;2023-04-30T04:29:31;28.60;;;14.80;;
57311;SDS011;43154;50.966;18.316;2023-04-30T04:31:56;29.60;;;15.90;;
57311;SDS011;43154;50.966;18.316;2023-04-30T04:34:24;28.00;;;13.90;;
57311;SDS011;43154;50.966;18.316;2023-04-30T04:36:51;31.40;;;15.40;;
57311;SDS011;43154;50.966;18.316;2023-04-30T04:39:17;32.20;;;15.60;;
57311;SDS011;43154;50.966;18.316;2023-04-30T04:41:42;28.50;;;14.40;;
57311;SDS011;43154;50.966;18.316;2023-04-30T04:44:08;31.10;;;16.20;;
57311;SDS011;43154;50.966;18.316;2023-04-30T04:46:34;32.50;;;14.70;;
57311;SDS011;43154;50.966;18.316;2023-04-30T04:49:02;34.60;;;16.30;;
57311;SDS011;43154;50.966;18.316;2023-04-30T04:51:28;30.40;;;15.30;;
57311;SDS011;43154;50.966;18.316;2023-04-30T04:53:54;29.60;;;15.80;;
57311;SDS011;43154;50.966;18.316;2023-04-30T04:56:19;33.70;;;17.00;;
57311;SDS011;43154;50.966;18.316;2023-04-30T04:58:45;29.60;;;16.20;;
57311;SDS011;43154;50.966;18.316;2023-04-30T05:01:11;33.20;;;16.90;;
57311;SDS011;43154;50.966;18.316;2023-04-30T05:03:37;34.40;;;17.10;;
57311;SDS011;43154;50.966;18.316;2023-04-30T05:06:03;31.60;;;16.50;;
57311;SDS011;43154;50.966;18.316;2023-04-30T05:08:29;30.10;;;16.90;;
57311;SDS011;43154;50.966;18.316;2023-04-30T05:10:55;34.00;;;17.10;;
57311;SDS011;43154;50.966;18.316;2023-04-30T05:13:20;35.90;;;17.20;;
57311;SDS011;43154;50.966;18.316;2023-04-30T05:15:48;37.30;;;17.00;;
57311;SDS011;43154;50.966;18.316;2023-04-30T05:18:15;34.60;;;16.90;;
57311;SDS011;43154;50.966;18.316;2023-04-30T05:20:41;29.20;;;15.70;;
57311;SDS011;43154;50.966;18.316;2023-04-30T05:23:06;30.90;;;16.10;;
57311;SDS011;43154;50.966;18.316;2023-04-30T05:25:32;30.90;;;15.60;;
57311;SDS011;43154;50.966;18.316;2023-04-30T05:27:58;34.40;;;17.50;;
57311;SDS011;43154;50.966;18.316;2023-04-30T05:30:23;32.60;;;16.70;;
57311;SDS011;43154;50.966;18.316;2023-04-30T05:32:49;31.70;;;16.60;;
57311;SDS011;43154;50.966;18.316;2023-04-30T05:35:17;30.50;;;15.60;;
57311;SDS011;43154;50.966;18.316;2023-04-30T05:37:43;28.70;;;14.50;;
57311;SDS011;43154;50.966;18.316;2023-04-30T05:40:09;32.00;;;16.20;;
57311;SDS011;43154;50.966;18.316;2023-04-30T05:42:36;28.20;;;14.20;;
57311;SDS011;43154;50.966;18.316;2023-04-30T05:45:02;30.20;;;15.90;;
57311;SDS011;43154;50.966;18.316;2023-04-30T05:47:28;29.90;;;14.20;;
57311;SDS011;43154;50.966;18.316;2023-04-30T05:49:55;26.80;;;13.70;;
57311;SDS011;43154;50.966;18.316;2023-04-30T05:52:22;26.10;;;13.40;;
57311;SDS011;43154;50.966;18.316;2023-04-30T05:54:47;26.00;;;13.40;;
57311;SDS011;43154;50.966;18.316;2023-04-30T05:57:13;26.00;;;13.70;;
57311;SDS011;43154;50.966;18.316;2023-04-30T05:59:38;26.10;;;12.20;;
57311;SDS011;43154;50.966;18.316;2023-04-30T06:02:04;22.40;;;11.60;;
57311;SDS011;43154;50.966;18.316;2023-04-30T06:04:30;28.50;;;13.50;;
57311;SDS011;43154;50.966;18.316;2023-04-30T06:06:56;25.20;;;11.70;;
57311;SDS011;43154;50.966;18.316;2023-04-30T06:09:21;26.90;;;13.60;;
57311;SDS011;43154;50.966;18.316;2023-04-30T06:11:47;26.30;;;13.00;;
57311;SDS011;43154;50.966;18.316;2023-04-30T06:14:16;28.70;;;13.40;;
57311;SDS011;43154;50.966;18.316;2023-04-30T06:16:43;25.80;;;10.90;;
57311;SDS011;43154;50.966;18.316;2023-04-30T06:19:09;19.90;;;10.20;;
57311;SDS011;43154;50.966;18.316;2023-04-30T06:21:36;19.90;;;10.70;;
57311;SDS011;43154;50.966;18.316;2023-04-30T06:24:02;23.00;;;10.70;;
57311;SDS011;43154;50.966;18.316;2023-04-30T06:26:28;24.30;;;10.80;;
57311;SDS011;43154;50.966;18.316;2023-04-30T06:28:53;23.50;;;11.00;;
57311;SDS011;43154;50.966;18.316;2023-04-30T06:31:19;23.30;;;10.20;;
57311;SDS011;43154;50.966;18.316;2023-04-30T06:33:45;20.80;;;10.30;;
57311;SDS011;43154;50.966;18.316;2023-04-30T06:36:11;24.00;;;10.40;;
57311;SDS011;43154;50.966;18.316;2023-04-30T06:38:37;23.90;;;11.00;;
57311;SDS011;43154;50.966;18.316;2023-04-30T06:41:03;22.00;;;10.80;;
57311;SDS011;43154;50.966;18.316;2023-04-30T06:43:28;26.80;;;10.60;;
57311;SDS011;43154;50.966;18.316;2023-04-30T06:45:54;21.10;;;10.40;;
57311;SDS011;43154;50.966;18.316;2023-04-30T06:48:20;21.70;;;11.50;;
57311;SDS011;43154;50.966;18.316;2023-04-30T06:50:46;21.60;;;10.10;;
57311;SDS011;43154;50.966;18.316;2023-04-30T06:53:11;22.60;;;11.40;;
57311;SDS011;43154;50.966;18.316;2023-04-30T06:55:40;22.90;;;10.50;;
57311;SDS011;43154;50.966;18.316;2023-04-30T06:58:06;21.30;;;9.90;;
57311;SDS011;43154;50.966;18.316;2023-04-30T07:00:32;25.90;;;12.50;;
57311;SDS011;43154;50.966;18.316;2023-04-30T07:02:59;23.60;;;12.00;;
57311;SDS011;43154;50.966;18.316;2023-04-30T07:05:27;19.30;;;10.40;;
57311;SDS011;43154;50.966;18.316;2023-04-30T07:07:53;19.80;;;9.50;;
57311;SDS011;43154;50.966;18.316;2023-04-30T07:10:19;19.90;;;8.80;;
57311;SDS011;43154;50.966;18.316;2023-04-30T07:12:45;21.10;;;9.10;;
57311;SDS011;43154;50.966;18.316;2023-04-30T07:15:10;19.60;;;8.90;;
57311;SDS011;43154;50.966;18.316;2023-04-30T07:17:36;19.40;;;8.80;;
57311;SDS011;43154;50.966;18.316;2023-04-30T07:20:03;19.70;;;7.80;;
57311;SDS011;43154;50.966;18.316;2023-04-30T07:22:29;19.50;;;8.40;;
57311;SDS011;43154;50.966;18.316;2023-04-30T07:24:56;21.10;;;10.20;;
57311;SDS011;43154;50.966;18.316;2023-04-30T07:27:22;17.60;;;7.70;;
57311;SDS011;43154;50.966;18.316;2023-04-30T07:29:47;17.50;;;7.80;;
57311;SDS011;43154;50.966;18.316;2023-04-30T07:32:13;16.90;;;7.90;;
57311;SDS011;43154;50.966;18.316;2023-04-30T07:34:40;19.90;;;8.80;;
57311;SDS011;43154;50.966;18.316;2023-04-30T07:37:07;19.00;;;7.70;;
57311;SDS011;43154;50.966;18.316;2023-04-30T07:39:33;18.10;;;7.60;;
57311;SDS011;43154;50.966;18.316;2023-04-30T07:41:59;18.30;;;7.30;;
57311;SDS011;43154;50.966;18.316;2023-04-30T07:44:27;19.50;;;7.60;;
57311;SDS011;43154;50.966;18.316;2023-04-30T07:46:53;17.30;;;6.50;;
57311;SDS011;43154;50.966;18.316;2023-04-30T07:49:18;18.00;;;7.00;;
57311;SDS011;43154;50.966;18.316;2023-04-30T07:51:44;16.60;;;7.30;;
57311;SDS011;43154;50.966;18.316;2023-04-30T07:54:10;18.40;;;7.20;;
57311;SDS011;43154;50.966;18.316;2023-04-30T07:56:36;16.10;;;6.70;;
57311;SDS011;43154;50.966;18.316;2023-04-30T07:59:01;14.80;;;5.60;;
57311;SDS011;43154;50.966;18.316;2023-04-30T08:01:27;16.00;;;6.80;;
57311;SDS011;43154;50.966;18.316;2023-04-30T08:03:53;16.20;;;6.80;;
57311;SDS011;43154;50.966;18.316;2023-04-30T08:06:19;19.90;;;8.90;;
57311;SDS011;43154;50.966;18.316;2023-04-30T08:08:45;14.60;;;6.50;;
57311;SDS011;43154;50.966;18.316;2023-04-30T08:11:10;16.30;;;6.90;;
57311;SDS011;43154;50.966;18.316;2023-04-30T08:13:37;15.40;;;6.40;;
57311;SDS011;43154;50.966;18.316;2023-04-30T08:16:02;16.80;;;5.70;;
57311;SDS011;43154;50.966;18.316;2023-04-30T08:18:28;16.10;;;5.70;;
57311;SDS011;43154;50.966;18.316;2023-04-30T08:20:54;16.50;;;6.40;;
57311;SDS011;43154;50.966;18.316;2023-04-30T08:23:19;14.70;;;6.10;;
57311;SDS011;43154;50.966;18.316;2023-04-30T08:25:45;14.00;;;6.00;;
57311;SDS011;43154;50.966;18.316;2023-04-30T08:28:11;15.90;;;6.70;;
57311;SDS011;43154;50.966;18.316;2023-04-30T08:30:36;13.40;;;6.00;;
57311;SDS011;43154;50.966;18.316;2023-04-30T08:33:02;16.40;;;6.90;;
57311;SDS011;43154;50.966;18.316;2023-04-30T08:35:28;15.50;;;6.30;;
57311;SDS011;43154;50.966;18.316;2023-04-30T08:37:54;13.50;;;5.70;;
57311;SDS011;43154;50.966;18.316;2023-04-30T08:40:20;14.60;;;6.00;;
57311;SDS011;43154;50.966;18.316;2023-04-30T08:42:49;14.30;;;5.80;;
57311;SDS011;43154;50.966;18.316;2023-04-30T08:45:17;16.50;;;6.50;;
57311;SDS011;43154;50.966;18.316;2023-04-30T08:47:44;14.40;;;6.00;;
57311;SDS011;43154;50.966;18.316;2023-04-30T09:23:52;14.10;;;5.80;;
57311;SDS011;43154;50.966;18.316;2023-04-30T09:26:55;14.60;;;6.40;;
57311;SDS011;43154;50.966;18.316;2023-04-30T09:29:45;14.50;;;6.10;;
57311;SDS011;43154;50.966;18.316;2023-04-30T09:32:18;14.10;;;5.50;;
57311;SDS011;43154;50.966;18.316;2023-04-30T09:34:55;13.90;;;5.80;;
57311;SDS011;43154;50.966;18.316;2023-04-30T09:37:45;12.60;;;5.60;;
57311;SDS011;43154;50.966;18.316;2023-04-30T09:40:39;16.40;;;6.10;;
57311;SDS011;43154;50.966;18.316;2023-04-30T09:43:17;15.30;;;5.50;;
57311;SDS011;43154;50.966;18.316;2023-04-30T09:46:02;15.30;;;5.90;;
57311;SDS011;43154;50.966;18.316;2023-04-30T09:48:45;17.00;;;6.30;;
57311;SDS011;43154;50.966;18.316;2023-04-30T09:54:07;12.30;;;5.70;;
57311;SDS011;43154;50.966;18.316;2023-04-30T09:56:44;15.60;;;5.50;;
57311;SDS011;43154;50.966;18.316;2023-04-30T09:59:22;14.20;;;5.20;;
57311;SDS011;43154;50.966;18.316;2023-04-30T10:02:13;13.30;;;5.30;;
57311;SDS011;43154;50.966;18.316;2023-04-30T10:04:48;13.90;;;5.10;;
57311;SDS011;43154;50.966;18.316;2023-04-30T10:07:23;12.30;;;5.20;;
57311;SDS011;43154;50.966;18.316;2023-04-30T10:10:14;13.40;;;4.90;;
57311;SDS011;43154;50.966;18.316;2023-04-30T10:12:55;13.60;;;4.90;;
57311;SDS011;43154;50.966;18.316;2023-04-30T10:15:42;16.30;;;5.60;;
57311;SDS011;43154;50.966;18.316;2023-04-30T10:18:56;13.40;;;5.30;;
57311;SDS011;43154;50.966;18.316;2023-04-30T10:21:32;14.40;;;5.10;;
57311;SDS011;43154;50.966;18.316;2023-04-30T10:24:15;15.60;;;4.60;;
57311;SDS011;43154;50.966;18.316;2023-04-30T10:27:12;12.60;;;4.60;;
57311;SDS011;43154;50.966;18.316;2023-04-30T10:29:39;10.90;;;4.20;;
57311;SDS011;43154;50.966;18.316;2023-04-30T10:32:13;14.20;;;5.40;;
57311;SDS011;43154;50.966;18.316;2023-04-30T10:40:44;12.10;;;5.00;;
57311;SDS011;43154;50.966;18.316;2023-04-30T10:43:24;13.80;;;5.30;;
57311;SDS011;43154;50.966;18.316;2023-04-30T10:46:07;12.50;;;4.80;;
57311;SDS011;43154;50.966;18.316;2023-04-30T10:48:51;13.40;;;5.10;;
57311;SDS011;43154;50.966;18.316;2023-04-30T10:51:22;15.70;;;5.10;;
57311;SDS011;43154;50.966;18.316;2023-04-30T10:54:04;13.30;;;4.80;;
57311;SDS011;43154;50.966;18.316;2023-04-30T10:56:38;11.90;;;4.90;;
57311;SDS011;43154;50.966;18.316;2023-04-30T10:59:24;15.30;;;5.10;;
57311;SDS011;43154;50.966;18.316;2023-04-30T11:02:01;14.80;;;4.90;;
57311;SDS011;43154;50.966;18.316;2023-04-30T11:07:59;25.40;;;10.40;;
57311;SDS011;43154;50.966;18.316;2023-04-30T11:10:34;14.40;;;5.30;;
57311;SDS011;43154;50.966;18.316;2023-04-30T11:13:04;11.50;;;4.90;;
57311;SDS011;43154;50.966;18.316;2023-04-30T11:15:44;12.40;;;4.90;;
57311;SDS011;43154;50.966;18.316;2023-04-30T11:18:18;12.90;;;4.30;;
57311;SDS011;43154;50.966;18.316;2023-04-30T11:20:58;11.20;;;3.90;;
57311;SDS011;43154;50.966;18.316;2023-04-30T11:26:10;13.80;;;5.10;;
57311;SDS011;43154;50.966;18.316;2023-04-30T11:28:49;14.30;;;4.90;;
57311;SDS011;43154;50.966;18.316;2023-04-30T11:31:39;15.40;;;6.90;;
57311;SDS011;43154;50.966;18.316;2023-04-30T11:34:15;12.80;;;4.40;;
57311;SDS011;43154;50.966;18.316;2023-04-30T11:37:01;13.00;;;4.40;;
57311;SDS011;43154;50.966;18.316;2023-04-30T11:39:45;11.30;;;4.10;;
57311;SDS011;43154;50.966;18.316;2023-04-30T11:42:18;11.20;;;4.00;;
57311;SDS011;43154;50.966;18.316;2023-04-30T11:45:11;11.80;;;4.30;;
57311;SDS011;43154;50.966;18.316;2023-04-30T11:47:55;14.20;;;5.70;;
57311;SDS011;43154;50.966;18.316;2023-04-30T11:50:34;11.20;;;4.10;;
57311;SDS011;43154;50.966;18.316;2023-04-30T11:53:10;11.20;;;3.90;;
57311;SDS011;43154;50.966;18.316;2023-04-30T11:55:45;12.80;;;4.90;;
57311;SDS011;43154;50.966;18.316;2023-04-30T11:58:19;11.60;;;4.20;;
57311;SDS011;43154;50.966;18.316;2023-04-30T12:00:48;10.40;;;4.00;;
57311;SDS011;43154;50.966;18.316;2023-04-30T12:03:25;13.30;;;4.40;;
57311;SDS011;43154;50.966;18.316;2023-04-30T12:05:57;11.70;;;4.10;;
57311;SDS011;43154;50.966;18.316;2023-04-30T12:08:33;12.50;;;4.20;;
57311;SDS011;43154;50.966;18.316;2023-04-30T12:11:17;10.30;;;3.40;;
57311;SDS011;43154;50.966;18.316;2023-04-30T12:14:11;12.60;;;3.70;;
57311;SDS011;43154;50.966;18.316;2023-04-30T12:16:40;11.70;;;3.70;;
57311;SDS011;43154;50.966;18.316;2023-04-30T12:19:23;15.80;;;4.30;;
57311;SDS011;43154;50.966;18.316;2023-04-30T12:24:33;10.50;;;3.70;;
57311;SDS011;43154;50.966;18.316;2023-04-30T12:27:02;12.10;;;3.70;;
57311;SDS011;43154;50.966;18.316;2023-04-30T12:29:43;12.00;;;3.50;;
57311;SDS011;43154;50.966;18.316;2023-04-30T12:32:11;12.90;;;3.80;;
57311;SDS011;43154;50.966;18.316;2023-04-30T12:34:45;12.10;;;3.60;;
57311;SDS011;43154;50.966;18.316;2023-04-30T12:37:14;10.20;;;3.30;;
57311;SDS011;43154;50.966;18.316;2023-04-30T12:39:48;12.00;;;3.20;;
57311;SDS011;43154;50.966;18.316;2023-04-30T12:42:17;10.10;;;3.20;;
57311;SDS011;43154;50.966;18.316;2023-04-30T12:44:54;11.40;;;3.70;;
57311;SDS011;43154;50.966;18.316;2023-04-30T12:47:28;11.70;;;3.60;;
57311;SDS011;43154;50.966;18.316;2023-04-30T12:50:02;11.20;;;3.00;;
57311;SDS011;43154;50.966;18.316;2023-04-30T12:52:38;11.80;;;3.50;;
57311;SDS011;43154;50.966;18.316;2023-04-30T12:55:21;10.60;;;3.20;;
57311;SDS011;43154;50.966;18.316;2023-04-30T12:58:05;10.90;;;3.20;;
57311;SDS011;43154;50.966;18.316;2023-04-30T13:00:53;11.50;;;3.40;;
57311;SDS011;43154;50.966;18.316;2023-04-30T13:03:27;10.60;;;3.50;;
57311;SDS011;43154;50.966;18.316;2023-04-30T13:08:27;11.10;;;3.40;;
57311;SDS011;43154;50.966;18.316;2023-04-30T13:10:58;12.30;;;3.50;;
57311;SDS011;43154;50.966;18.316;2023-04-30T13:16:58;14.40;;;3.50;;
57311;SDS011;43154;50.966;18.316;2023-04-30T13:19:24;9.90;;;3.40;;
57311;SDS011;43154;50.966;18.316;2023-04-30T13:21:51;11.70;;;3.60;;
57311;SDS011;43154;50.966;18.316;2023-04-30T13:24:17;13.60;;;3.60;;
57311;SDS011;43154;50.966;18.316;2023-04-30T13:26:43;12.20;;;4.30;;
57311;SDS011;43154;50.966;18.316;2023-04-30T13:29:11;10.20;;;3.30;;
57311;SDS011;43154;50.966;18.316;2023-04-30T13:31:37;11.90;;;3.70;;
57311;SDS011;43154;50.966;18.316;2023-04-30T13:34:03;11.70;;;3.60;;
57311;SDS011;43154;50.966;18.316;2023-04-30T13:36:28;11.70;;;3.70;;
57311;SDS011;43154;50.966;18.316;2023-04-30T13:38:54;15.00;;;5.00;;
57311;SDS011;43154;50.966;18.316;2023-04-30T13:41:20;13.20;;;4.40;;
57311;SDS011;43154;50.966;18.316;2023-04-30T13:43:47;9.30;;;2.90;;
57311;SDS011;43154;50.966;18.316;2023-04-30T13:46:13;11.40;;;3.10;;
57311;SDS011;43154;50.966;18.316;2023-04-30T13:48:39;11.00;;;3.30;;
57311;SDS011;43154;50.966;18.316;2023-04-30T13:51:06;10.60;;;3.10;;
57311;SDS011;43154;50.966;18.316;2023-04-30T13:53:32;11.40;;;3.30;;
57311;SDS011;43154;50.966;18.316;2023-04-30T13:56:00;12.10;;;3.40;;
57311;SDS011;43154;50.966;18.316;2023-04-30T13:58:27;11.50;;;3.30;;
57311;SDS011;43154;50.966;18.316;2023-04-30T14:00:53;13.20;;;3.50;;
57311;SDS011;43154;50.966;18.316;2023-04-30T14:03:19;12.40;;;3.60;;
57311;SDS011;43154;50.966;18.316;2023-04-30T14:05:47;9.90;;;3.20;;
57311;SDS011;43154;50.966;18.316;2023-04-30T14:08:13;12.90;;;3.50;;
57311;SDS011;43154;50.966;18.316;2023-04-30T14:10:39;15.40;;;5.20;;
57311;SDS011;43154;50.966;18.316;2023-04-30T14:13:05;11.60;;;3.20;;
57311;SDS011;43154;50.966;18.316;2023-04-30T14:15:31;9.50;;;3.00;;
57311;SDS011;43154;50.966;18.316;2023-04-30T14:17:57;11.80;;;3.70;;
57311;SDS011;43154;50.966;18.316;2023-04-30T14:20:24;10.00;;;3.30;;
57311;SDS011;43154;50.966;18.316;2023-04-30T14:22:50;9.50;;;3.00;;
57311;SDS011;43154;50.966;18.316;2023-04-30T14:25:16;11.90;;;3.40;;
57311;SDS011;43154;50.966;18.316;2023-04-30T14:27:42;10.40;;;3.00;;
57311;SDS011;43154;50.966;18.316;2023-04-30T14:30:08;11.90;;;3.60;;
57311;SDS011;43154;50.966;18.316;2023-04-30T14:32:34;10.60;;;3.20;;
57311;SDS011;43154;50.966;18.316;2023-04-30T14:35:01;11.50;;;3.60;;
57311;SDS011;43154;50.966;18.316;2023-04-30T14:37:28;12.70;;;3.80;;
57311;SDS011;43154;50.966;18.316;2023-04-30T14:39:54;11.70;;;4.00;;
57311;SDS011;43154;50.966;18.316;2023-04-30T14:42:20;11.30;;;3.20;;
57311;SDS011;43154;50.966;18.316;2023-04-30T14:44:48;11.70;;;2.90;;
57311;SDS011;43154;50.966;18.316;2023-04-30T14:47:15;12.60;;;3.30;;
57311;SDS011;43154;50.966;18.316;2023-04-30T14:49:41;11.80;;;3.20;;
57311;SDS011;43154;50.966;18.316;2023-04-30T14:52:07;12.30;;;3.50;;
57311;SDS011;43154;50.966;18.316;2023-04-30T14:54:33;9.90;;;2.90;;
57311;SDS011;43154;50.966;18.316;2023-04-30T14:56:59;11.00;;;3.10;;
57311;SDS011;43154;50.966;18.316;2023-04-30T14:59:25;10.70;;;3.20;;
57311;SDS011;43154;50.966;18.316;2023-04-30T15:01:51;12.90;;;3.30;;
57311;SDS011;43154;50.966;18.316;2023-04-30T15:04:17;10.60;;;3.20;;
57311;SDS011;43154;50.966;18.316;2023-04-30T15:06:43;11.50;;;3.10;;
57311;SDS011;43154;50.966;18.316;2023-04-30T15:09:09;9.90;;;2.90;;
57311;SDS011;43154;50.966;18.316;2023-04-30T15:11:37;11.00;;;3.10;;
57311;SDS011;43154;50.966;18.316;2023-04-30T15:14:02;18.00;;;6.10;;
57311;SDS011;43154;50.966;18.316;2023-04-30T15:16:28;10.70;;;3.10;;
57311;SDS011;43154;50.966;18.316;2023-04-30T15:18:54;11.40;;;3.40;;
57311;SDS011;43154;50.966;18.316;2023-04-30T15:21:20;12.10;;;3.60;;
57311;SDS011;43154;50.966;18.316;2023-04-30T15:23:46;16.90;;;5.40;;
57311;SDS011;43154;50.966;18.316;2023-04-30T15:26:13;11.90;;;3.30;;
57311;SDS011;43154;50.966;18.316;2023-04-30T15:28:41;12.20;;;3.40;;
57311;SDS011;43154;50.966;18.316;2023-04-30T15:31:07;12.20;;;3.40;;
57311;SDS011;43154;50.966;18.316;2023-04-30T15:33:33;12.70;;;3.20;;
57311;SDS011;43154;50.966;18.316;2023-04-30T15:36:04;12.70;;;3.80;;
57311;SDS011;43154;50.966;18.316;2023-04-30T15:38:33;11.00;;;3.60;;
57311;SDS011;43154;50.966;18.316;2023-04-30T15:40:59;11.20;;;3.40;;
57311;SDS011;43154;50.966;18.316;2023-04-30T15:43:25;10.50;;;2.90;;
57311;SDS011;43154;50.966;18.316;2023-04-30T15:45:54;8.90;;;2.60;;
57311;SDS011;43154;50.966;18.316;2023-04-30T15:48:20;10.20;;;2.90;;
57311;SDS011;43154;50.966;18.316;2023-04-30T15:50:49;10.80;;;3.30;;
57311;SDS011;43154;50.966;18.316;2023-04-30T15:53:17;11.20;;;3.00;;
57311;SDS011;43154;50.966;18.316;2023-04-30T15:55:43;11.50;;;3.00;;
57311;SDS011;43154;50.966;18.316;2023-04-30T15:58:10;13.20;;;3.10;;
57311;SDS011;43154;50.966;18.316;2023-04-30T16:00:37;9.50;;;2.90;;
57311;SDS011;43154;50.966;18.316;2023-04-30T16:03:04;12.50;;;3.80;;
57311;SDS011;43154;50.966;18.316;2023-04-30T16:05:30;11.00;;;3.00;;
57311;SDS011;43154;50.966;18.316;2023-04-30T16:07:58;11.60;;;3.40;;
57311;SDS011;43154;50.966;18.316;2023-04-30T16:10:24;9.20;;;2.90;;
57311;SDS011;43154;50.966;18.316;2023-04-30T16:12:52;10.10;;;2.90;;
57311;SDS011;43154;50.966;18.316;2023-04-30T16:15:21;13.20;;;3.70;;
57311;SDS011;43154;50.966;18.316;2023-04-30T16:17:48;11.10;;;3.30;;
57311;SDS011;43154;50.966;18.316;2023-04-30T16:20:14;11.70;;;3.20;;
57311;SDS011;43154;50.966;18.316;2023-04-30T16:22:40;11.70;;;3.60;;
57311;SDS011;43154;50.966;18.316;2023-04-30T16:25:07;11.10;;;2.90;;
57311;SDS011;43154;50.966;18.316;2023-04-30T16:27:34;13.40;;;4.00;;
57311;SDS011;43154;50.966;18.316;2023-04-30T16:30:03;12.60;;;3.70;;
57311;SDS011;43154;50.966;18.316;2023-04-30T16:32:30;11.10;;;3.40;;
57311;SDS011;43154;50.966;18.316;2023-04-30T16:34:59;16.30;;;5.60;;
57311;SDS011;43154;50.966;18.316;2023-04-30T16:37:26;11.30;;;3.50;;
57311;SDS011;43154;50.966;18.316;2023-04-30T16:39:53;12.90;;;3.20;;
57311;SDS011;43154;50.966;18.316;2023-04-30T16:42:19;15.30;;;5.30;;
57311;SDS011;43154;50.966;18.316;2023-04-30T16:44:48;13.60;;;3.90;;
57311;SDS011;43154;50.966;18.316;2023-04-30T16:47:14;11.20;;;3.20;;
57311;SDS011;43154;50.966;18.316;2023-04-30T16:49:43;18.10;;;5.80;;
57311;SDS011;43154;50.966;18.316;2023-04-30T16:52:09;11.70;;;3.90;;
57311;SDS011;43154;50.966;18.316;2023-04-30T16:54:37;12.10;;;3.70;;
57311;SDS011;43154;50.966;18.316;2023-04-30T16:57:10;10.70;;;3.70;;
57311;SDS011;43154;50.966;18.316;2023-04-30T16:59:39;15.10;;;5.50;;
57311;SDS011;43154;50.966;18.316;2023-04-30T17:02:16;11.10;;;3.50;;
57311;SDS011;43154;50.966;18.316;2023-04-30T17:04:42;10.90;;;3.20;;
57311;SDS011;43154;50.966;18.316;2023-04-30T17:07:11;9.70;;;3.00;;